Date,TemperatureHighF,TemperatureAvgF,TemperatureLowF,DewpointHighF,DewpointAvgF,DewpointLowF,HumidityHigh,HumidityAvg,HumidityLow,PressureMaxIn,PressureMinIn,WindSpeedMaxMPH,WindSpeedAvgMPH,GustSpeedMaxMPH,PrecipitationSumIn
2012-3-18,44,35,27,27,18,16,64,52,35,29.84,29.62,16,6,16,0.00
2012-3-19,42,33,21,28,20,14,75,61,43,29.90,29.78,12,2,12,0.00
2012-3-20,51,42,36,38,34,27,87,73,59,29.96,29.77,22,6,22,0.00
2012-3-21,38,34,32,33,31,29,93,89,77,29.96,29.75,7,2,8,0.00
2012-3-22,43,35,28,31,28,24,94,77,56,30.01,29.75,11,2,11,0.00
2012-3-23,49,36,24,33,28,21,92,73,48,29.98,29.90,14,3,14,0.00
2012-3-24,47,40,34,36,32,29,85,76,62,29.97,29.90,10,3,10,0.00
2012-3-25,53,41,34,37,32,28,88,72,50,29.90,29.73,16,3,16,0.00
2012-3-26,54,43,30,31,26,15,82,55,27,29.84,29.76,13,4,13,0.00
2012-3-27,53,47,42,38,32,27,65,57,49,29.81,29.63,19,7,19,0.00
2012-3-28,53,44,35,34,30,22,86,58,34,29.90,29.67,21,5,21,0.00
2012-3-29,58,48,44,41,36,28,87,64,47,29.84,29.64,23,10,23,0.00
2012-3-30,48,43,35,44,39,33,92,86,74,29.78,29.63,21,6,21,0.00
2012-3-31,54,41,35,40,33,27,96,77,40,29.70,29.43,18,4,18,0.00
2012-4-1,46,38,32,34,27,22,83,65,44,30.24,29.57,21,7,21,0.00
2012-4-2,62,44,29,33,28,25,87,59,27,30.28,30.00,11,3,11,0.00
2012-4-3,60,45,36,36,29,23,84,55,32,30.01,29.83,17,4,17,0.00
2012-4-4,46,37,32,32,27,21,93,68,42,30.08,29.91,19,5,19,0.00
2012-4-5,45,33,23,31,24,18,87,71,43,30.11,30.04,16,2,16,0.00
2012-4-6,47,34,23,27,22,19,88,63,35,30.22,30.11,11,2,11,0.00
2012-4-7,56,39,23,33,26,19,85,61,40,30.23,30.09,15,3,15,0.00
2012-4-8,54,42,34,34,29,25,77,60,45,30.17,30.05,10,2,10,0.00
2012-4-9,64,49,33,38,34,28,84,58,37,30.06,29.85,11,3,11,0.00
2012-4-10,64,52,38,40,34,24,81,55,25,29.85,29.77,14,3,14,0.00
2012-4-11,53,45,36,43,39,34,92,79,50,29.78,29.69,17,2,17,0.00
2012-4-12,52,41,34,38,34,28,95,78,42,29.82,29.75,11,2,11,0.00
2012-4-13,52,40,30,39,34,28,93,79,55,29.86,29.76,11,2,11,0.00
2012-4-14,61,43,34,39,32,20,94,71,24,30.14,29.86,13,2,13,0.00
2012-4-15,64,50,36,39,29,14,80,51,16,30.19,30.07,18,3,18,0.00
2012-4-16,57,49,43,44,39,32,83,68,54,30.18,30.02,18,5,18,0.00
2012-4-17,52,42,30,40,34,27,91,72,47,30.19,30.01,10,2,10,0.00
2012-4-18,59,47,35,42,36,33,92,67,39,30.06,30.01,20,5,20,0.00
2012-4-19,59,52,41,53,45,37,88,78,66,30.15,30.05,17,3,17,0.00
2012-4-20,72,58,44,47,42,34,88,59,26,30.18,30.11,21,4,21,0.00
2012-4-21,80,60,39,49,43,36,91,58,27,30.16,30.01,10,3,10,0.00
2012-4-22,84,64,43,54,48,39,86,59,33,30.06,29.89,13,3,13,0.00
2012-4-23,87,65,50,58,50,42,92,63,22,29.98,29.81,21,3,21,0.00
2012-4-24,74,60,50,51,47,44,90,63,37,29.95,29.85,20,4,20,0.00
2012-4-25,68,54,42,51,45,39,93,73,37,29.93,29.68,16,3,16,0.00
2012-4-26,52,45,36,48,37,30,94,75,45,30.10,29.62,20,6,20,0.00
2012-4-27,53,44,35,37,33,29,87,65,45,30.27,30.10,16,4,16,0.00
2012-4-28,65,52,42,43,40,36,83,65,43,30.25,30.15,10,2,10,0.00
2012-4-29,75,55,35,43,38,29,92,59,20,30.18,29.89,20,4,20,0.00
2012-4-30,59,52,41,44,38,30,71,57,42,29.99,29.80,24,8,24,0.00
2012-5-1,56,44,36,32,29,26,76,57,38,30.02,29.90,19,6,19,0.00
2012-5-2,59,46,32,34,27,22,76,51,28,30.00,29.78,12,3,12,0.00
2012-5-3,48,44,42,39,37,33,88,76,57,29.78,29.69,7,2,7,0.00
2012-5-5,57,49,37,33,31,26,76,50,35,30.42,30.38,13,4,13,0.00
2012-5-6,68,48,28,37,32,24,88,57,27,30.43,30.32,12,2,12,0.00
2012-5-7,75,56,33,41,36,28,83,50,29,30.36,30.16,12,3,12,0.00
2012-5-8,84,63,42,46,40,34,76,46,25,30.19,30.01,13,3,13,0.00
2012-5-9,62,52,36,43,33,20,68,50,21,30.26,30.07,17,6,17,0.00
2012-5-10,62,45,27,27,18,-1,79,41,10,30.34,30.18,11,3,11,0.00
2012-5-11,70,50,29,28,23,20,70,38,19,30.28,30.16,12,3,12,0.00
2012-5-12,79,57,33,38,30,21,68,38,22,30.29,30.16,13,3,13,0.00
2012-5-13,87,65,39,44,37,30,73,40,18,30.24,30.07,15,4,15,0.00
2012-5-14,89,68,47,44,40,36,72,40,18,30.14,30.00,12,3,12,0.00
2012-5-15,88,69,48,50,43,35,78,43,18,30.08,29.99,15,3,15,0.00
2012-5-16,76,62,43,44,34,22,81,40,17,30.09,30.01,15,3,15,0.00
2012-5-17,69,56,44,39,29,15,69,39,15,30.03,29.94,16,4,16,0.00
2012-5-18,71,52,33,30,23,12,78,38,15,30.11,30.03,13,3,13,0.00
2012-5-19,73,55,35,36,28,19,69,39,18,30.11,30.04,11,2,11,0.00
2012-5-20,78,63,52,49,41,35,64,47,33,30.10,29.98,14,3,14,0.00
2012-5-21,64,57,50,53,49,39,93,75,52,30.01,29.93,18,3,18,0.00
2012-5-22,61,52,43,42,38,32,73,58,42,30.06,29.94,26,8,26,0.00
2012-5-23,59,48,40,37,34,30,71,58,41,30.07,30.01,22,8,22,0.00
2012-5-24,51,44,42,43,38,33,90,78,60,30.02,29.79,10,2,10,0.00
2012-5-25,62,49,40,45,39,34,95,71,37,29.87,29.77,16,4,16,0.00
2012-5-26,64,52,37,43,38,32,90,62,32,30.01,29.87,19,4,19,0.00
2012-5-27,69,56,42,44,39,30,85,57,26,30.07,30.00,17,4,17,0.00
2012-5-28,72,55,41,45,41,37,90,61,35,30.08,30.00,16,3,16,0.00
2012-5-29,77,56,38,40,37,22,89,53,17,30.16,30.06,14,3,14,0.00
2012-5-30,78,64,45,48,39,30,69,42,24,30.23,30.15,14,3,14,0.00
2012-5-31,79,67,53,53,47,42,71,51,30,30.22,30.07,14,3,14,0.00
2012-6-1,86,68,54,55,50,42,86,56,25,30.08,29.90,16,3,16,0.00
2012-6-2,70,62,55,55,45,38,84,57,34,29.96,29.89,19,5,19,0.00
2012-6-3,66,58,52,48,44,39,88,61,40,29.95,29.90,11,3,11,0.00
2012-6-4,56,51,44,54,48,36,95,90,74,29.91,29.75,17,3,17,0.00
2012-6-5,57,47,41,38,34,30,75,61,43,30.21,29.90,19,8,19,0.00
2012-6-6,68,52,37,40,35,26,80,55,31,30.20,30.06,15,4,15,0.00
2012-6-7,64,51,44,49,41,36,88,69,46,30.06,29.92,21,5,21,0.00
2012-6-8,59,48,41,37,34,30,80,61,37,30.04,29.98,20,6,20,0.00
2012-6-9,63,50,35,37,34,30,84,56,36,30.23,30.03,18,4,18,0.00
2012-6-10,76,56,35,37,32,26,87,46,19,30.23,30.15,14,4,14,0.00
2012-6-11,78,62,41,45,37,28,74,43,23,30.20,30.09,12,3,12,0.00
2012-6-12,74,63,52,51,47,43,73,56,41,30.12,30.03,22,6,22,0.00
2012-6-13,78,62,49,48,42,33,74,50,24,30.10,30.06,17,5,17,0.00
2012-6-14,78,59,38,40,35,27,80,46,19,30.10,30.01,16,4,16,0.00
2012-6-15,81,63,43,45,42,36,81,49,27,30.20,30.10,12,3,12,0.00
2012-6-16,93,70,49,54,47,39,78,48,24,30.22,30.04,18,3,18,0.00
2012-6-17,78,69,57,55,48,42,72,50,29,30.05,29.93,22,7,22,0.00
2012-6-18,64,55,46,43,38,35,70,55,38,30.08,29.90,22,8,22,0.00
2012-6-19,65,54,41,41,37,33,76,54,37,30.15,30.07,12,3,12,0.00
2012-6-20,83,61,37,45,40,33,86,51,23,30.16,29.94,14,4,14,0.00
2012-6-21,91,69,48,52,44,39,75,44,21,29.99,29.76,12,3,12,0.00
2012-6-22,64,58,49,54,49,43,92,75,50,29.82,29.76,11,2,11,0.00
2012-6-23,65,51,42,48,45,40,95,81,47,29.93,29.75,12,2,12,0.00
2012-6-24,71,56,46,46,43,39,88,63,38,30.03,29.91,10,3,10,0.00
2012-6-25,69,54,44,46,43,40,89,67,38,30.03,29.94,17,3,17,0.00
2012-6-26,66,54,45,42,40,37,82,61,39,30.09,29.97,19,5,19,0.00
2012-6-27,81,60,38,47,42,35,89,55,28,30.09,29.94,15,3,15,0.00
2012-6-28,81,65,48,52,46,42,82,53,32,30.08,29.96,18,3,18,0.00
2012-6-29,79,68,58,54,49,46,75,53,34,30.12,30.04,10,2,10,0.00
2012-6-30,76,64,56,62,54,51,85,71,52,30.07,29.97,12,2,12,0.11
2012-7-1,84,67,52,55,51,46,90,59,30,30.05,30.00,14,3,14,0.00
2012-7-2,84,65,48,52,46,38,90,55,25,30.03,29.86,18,4,18,0.00
2012-7-3,75,60,50,45,41,36,73,51,29,30.11,29.95,19,6,19,0.00
2012-7-4,81,60,39,43,40,35,87,51,23,30.11,29.93,15,4,15,0.02
2012-7-10,95,86,73,53,42,36,50,23,16,30.15,30.02,14,5,14,0.00
2012-7-14,86,73,60,63,53,42,90,56,24,30.03,29.96,19,4,19,0.00
2012-7-15,82,67,55,58,49,29,91,58,18,30.02,29.90,21,6,21,0.00
2012-7-16,82,64,48,49,46,42,83,54,29,29.95,29.81,14,3,14,0.00
2012-7-17,90,71,59,56,52,40,76,53,22,29.99,29.86,12,3,12,0.00
2012-7-18,67,61,58,59,56,53,92,84,73,30.03,29.96,8,2,8,0.00
2012-7-21,73,70,67,53,52,51,58,53,48,30.11,30.10,7,3,7,0.00
2012-7-22,87,67,52,54,47,36,84,52,18,30.15,29.99,25,4,25,0.00
2012-7-23,80,63,43,44,38,29,83,46,18,30.26,30.09,14,4,14,0.00
2012-7-24,90,69,44,45,39,26,73,40,11,30.12,29.96,14,3,14,0.00
2012-7-25,95,73,53,52,45,41,68,40,18,30.06,29.93,16,3,16,0.00
2012-7-26,94,76,56,55,49,38,78,43,16,30.04,29.93,17,3,17,0.00
2012-7-27,87,73,58,55,44,30,73,41,15,30.12,29.98,18,4,18,0.03
2012-7-28,92,68,45,50,42,34,80,45,15,30.16,30.06,14,3,14,0.00
2012-7-29,94,69,48,51,46,38,83,48,19,30.17,30.03,15,3,15,0.00
2012-7-30,93,69,48,50,44,40,79,46,19,30.16,30.06,15,3,15,0.00
2012-7-31,92,70,48,50,44,33,80,46,17,30.16,30.07,13,3,13,0.00
2012-8-1,94,69,48,46,41,36,76,41,15,30.20,30.11,13,2,13,0.00
2012-8-2,91,70,49,52,42,34,70,40,18,30.18,30.04,11,3,11,0.00
2012-8-3,90,70,49,49,43,38,76,41,18,30.15,30.02,13,4,13,0.00
2012-8-4,96,76,52,45,40,36,58,30,16,30.10,29.98,12,3,12,0.00
2012-8-5,98,78,56,59,42,35,54,30,13,30.11,30.00,18,3,18,0.02
2012-8-8,70,68,66,47,46,45,48,46,44,30.20,30.19,11,5,11,0.00
2012-8-9,92,71,51,46,41,34,68,38,15,30.20,30.04,14,3,14,0.00
2012-8-10,93,71,50,47,38,26,77,36,11,30.11,30.00,14,3,14,0.00
2012-8-11,98,73,47,41,35,27,67,30,10,30.11,29.98,14,3,14,0.00
2012-8-12,99,78,54,42,37,32,48,26,12,30.07,29.95,12,3,12,0.00
2012-8-13,99,79,57,50,41,27,58,30,13,30.08,29.97,12,4,12,0.00
2012-8-14,98,76,52,54,45,31,68,36,17,30.05,29.91,14,3,14,0.00
2012-8-15,95,76,56,54,48,44,69,42,20,30.03,29.95,15,4,15,0.00
2012-8-16,93,76,56,47,44,41,63,35,20,30.10,30.02,10,2,10,0.00
2012-8-17,101,79,56,48,40,30,59,31,10,30.12,29.99,14,3,14,0.00
2012-8-18,92,75,59,52,43,36,50,33,21,30.09,29.95,9,2,9,0.00
2012-8-19,94,76,57,52,46,33,71,40,15,30.05,29.96,15,3,15,0.00
2012-8-20,74,59,52,49,38,31,66,48,29,30.07,29.99,7,1,7,0.00
2012-8-21,89,74,58,51,46,40,65,39,23,30.05,29.96,15,4,15,0.00
2012-8-22,83,66,46,49,44,38,84,50,23,30.10,29.99,12,3,12,0.00
2012-8-23,81,63,45,45,40,27,81,49,17,30.10,30.00,13,4,13,0.00
2012-8-24,79,60,39,42,32,16,86,45,10,30.20,30.02,12,3,12,0.00
2012-8-26,90,76,62,44,40,36,39,29,17,29.98,29.80,15,4,15,0.00
2012-8-27,87,66,48,51,43,37,75,46,21,30.09,29.98,15,3,15,0.00
2012-8-28,80,63,48,51,46,41,84,57,33,30.12,29.99,21,4,21,0.00
2012-8-29,75,61,43,45,42,37,82,53,31,30.18,30.06,12,3,12,0.00
2012-8-30,84,64,42,45,41,36,83,48,21,30.09,29.87,11,2,11,0.00
2012-8-31,85,64,45,48,42,35,78,48,18,30.01,29.87,12,3,12,0.00
2012-9-1,79,60,40,42,34,19,83,44,13,30.16,30.01,12,3,12,0.00
2012-9-2,79,62,40,43,33,20,67,39,12,30.20,30.08,12,3,12,0.00
2012-9-3,84,64,42,44,38,29,75,42,19,30.16,30.04,14,3,14,0.00
2012-9-4,84,66,44,44,37,29,66,38,18,30.23,30.09,12,2,12,0.00
2012-9-5,89,69,47,46,39,34,61,38,18,30.14,29.95,11,2,11,0.00
2012-9-6,81,66,47,46,42,37,73,44,25,30.17,30.01,13,4,14,0.00
2012-9-7,87,67,46,44,39,35,70,39,18,30.26,30.13,12,3,12,0.00
2012-9-8,88,70,49,44,39,34,60,35,19,30.18,29.96,13,2,13,0.00
2012-9-9,79,65,50,47,38,28,65,41,18,30.06,29.96,20,5,20,0.00
2012-9-10,72,57,45,45,41,36,76,55,32,30.18,30.06,16,6,16,0.00
2012-9-11,70,52,32,38,32,28,87,51,22,30.27,30.18,10,2,10,0.00
2012-9-12,77,56,34,33,27,23,70,37,15,30.37,30.25,14,3,14,0.00
2012-9-13,80,58,36,34,27,21,58,33,17,30.39,30.17,10,2,10,0.00
2012-9-14,89,65,43,51,33,26,60,34,13,30.22,30.06,9,2,9,0.04
2012-9-15,81,67,53,52,45,31,82,48,25,30.19,30.10,10,3,10,0.00
2012-9-16,83,63,42,41,35,29,74,41,17,30.24,30.13,10,2,10,0.00
2012-9-17,83,63,43,41,34,29,63,37,20,30.22,30.10,10,2,10,0.00
2012-9-18,85,66,45,40,34,29,58,34,16,30.17,30.06,9,2,9,0.00
2012-9-19,89,68,47,41,35,29,61,34,13,30.20,30.08,12,2,12,0.00
2012-9-20,90,68,46,41,36,30,57,33,15,30.17,30.02,12,3,12,0.00
2012-9-21,85,66,48,50,39,33,61,40,17,30.12,29.99,11,2,11,0.00
2012-9-22,77,62,44,43,36,28,78,43,18,30.12,30.05,13,2,13,0.00
2012-9-23,73,60,48,48,40,30,87,50,26,30.15,30.09,12,2,12,0.00
2012-9-24,79,60,43,46,40,34,75,52,28,30.17,30.05,10,2,10,0.00
2012-9-25,79,60,41,47,36,16,83,48,11,30.11,30.03,12,2,12,0.00
2012-9-26,76,58,37,34,28,16,69,37,11,30.12,30.04,12,2,12,0.00
2012-9-27,76,59,43,36,29,23,48,33,21,30.14,30.02,10,2,10,0.00
2012-9-28,85,66,54,45,36,29,53,35,18,30.10,30.00,14,2,14,0.00
2012-9-29,83,65,48,50,44,37,68,47,30,30.21,30.09,9,2,9,0.00
2012-9-30,68,61,56,27,25,22,32,25,19,30.34,30.31,7,2,7,0.00
2012-10-1,84,62,41,36,29,24,54,32,16,30.33,30.13,13,2,13,0.00
2012-10-2,81,61,42,43,26,10,62,31,5,30.18,30.06,15,3,15,0.00
2012-10-3,61,50,40,26,20,13,54,32,20,30.37,30.18,15,5,15,0.00
2012-10-4,62,45,28,28,22,18,73,45,21,30.29,30.22,16,3,16,0.00
2012-10-5,63,44,26,23,18,14,65,38,17,30.32,30.22,12,3,12,0.00
2012-10-6,64,44,27,24,17,12,57,35,18,30.32,30.16,13,2,13,0.00
2012-10-7,71,47,25,24,16,11,58,33,13,30.21,30.02,10,2,10,0.00
2012-10-8,74,51,28,29,20,13,52,32,13,30.05,29.96,12,2,12,0.00
2012-10-9,73,52,32,37,29,21,67,43,24,30.12,30.03,9,2,9,0.00
2012-10-10,78,59,36,37,31,25,68,38,19,30.07,29.92,9,2,9,0.00
2012-10-11,75,53,35,36,31,26,73,46,24,30.02,29.86,7,1,7,0.00
2012-10-12,65,49,34,45,33,24,79,55,32,30.06,29.89,16,3,16,0.29
2012-10-21,41,40,38,35,34,33,85,82,77,29.83,29.77,3,0,3,0.00
2012-10-22,48,38,33,39,32,27,94,80,50,29.77,29.59,18,3,18,0.42
2012-10-23,49,38,30,32,28,26,90,69,44,29.90,29.71,13,2,13,0.00
2012-10-24,49,40,34,34,30,27,83,67,45,30.16,29.86,16,3,16,0.02
2012-10-25,52,39,29,32,28,25,89,67,38,30.38,30.15,7,1,7,0.00
2012-10-26,59,45,32,41,33,26,81,64,48,30.35,30.11,22,4,22,0.00
2012-10-27,62,48,36,50,40,31,84,74,64,30.15,30.00,16,4,16,0.02
2012-10-28,63,57,53,56,51,47,92,81,71,30.04,29.96,10,3,10,0.26
2012-10-29,64,57,48,52,48,43,92,74,53,30.12,29.95,13,4,17,0.02
2012-10-30,68,57,46,49,45,37,86,65,43,30.08,29.86,11,3,11,0.00
2012-10-31,63,55,48,44,37,33,78,52,36,29.87,29.75,19,7,19,0.00
2012-11-1,57,49,39,41,38,35,86,67,54,30.09,29.82,18,5,18,0.00
2012-11-2,60,45,34,44,38,31,92,77,45,30.11,30.02,10,2,10,0.24
2012-11-3,60,50,41,50,44,39,95,83,63,30.23,30.05,11,1,11,0.00
2012-11-4,73,53,42,52,46,40,93,78,49,30.37,30.23,9,2,9,0.00
2012-11-5,75,51,42,51,44,39,93,80,39,30.39,30.22,8,2,8,0.00
2012-11-6,72,50,41,47,42,37,87,75,37,30.21,30.02,9,2,9,0.00
2012-11-7,58,46,33,47,31,27,85,58,39,30.14,29.92,18,5,18,0.00
2012-11-8,44,35,31,33,29,27,89,81,63,29.92,29.73,5,1,6,0.00
2012-11-9,42,34,32,33,30,25,93,85,53,29.85,29.80,9,1,9,0.11
2012-11-10,42,33,26,33,27,22,92,79,63,30.19,29.90,10,1,10,0.19
2012-11-11,42,33,22,33,26,18,87,77,60,30.26,30.19,15,4,15,0.11
2012-11-12,45,41,36,40,36,32,93,83,71,30.26,30.19,13,4,13,0.24
2012-11-13,53,40,32,42,36,31,94,86,64,30.26,30.13,6,1,6,0.00
2012-11-14,53,38,30,39,33,28,94,82,54,30.28,30.20,7,2,7,0.02
2012-11-15,44,34,26,36,30,24,93,88,72,30.24,29.98,5,1,5,0.00
2012-11-16,54,40,31,40,35,29,95,83,49,29.99,29.86,9,1,9,0.00
2012-11-17,54,44,35,42,36,26,95,72,58,29.86,29.58,18,5,22,0.04
2012-11-18,47,41,34,33,30,26,76,64,53,29.90,29.80,22,7,22,0.00
2012-11-19,56,52,45,42,38,34,90,62,51,29.84,29.68,27,11,30,0.35
2012-11-20,52,42,37,43,38,34,94,85,68,29.86,29.71,10,2,13,1.08
2012-11-21,43,38,33,37,32,26,93,78,58,30.29,29.66,15,5,19,0.20
2012-11-22,50,35,27,36,29,24,90,80,53,30.36,30.28,7,1,9,0.00
2012-11-23,54,42,30,41,34,28,93,75,51,30.30,30.15,8,2,9,0.02
2012-11-24,51,45,38,47,42,34,93,90,80,30.19,30.14,10,3,13,0.45
2012-11-25,45,36,30,34,31,27,93,83,60,30.22,30.16,6,1,8,0.00
2012-11-26,40,31,27,34,28,24,94,90,77,30.21,30.11,6,1,7,0.00
2012-11-27,34,31,29,32,30,28,95,94,92,30.16,30.03,5,1,7,0.02
2012-11-28,31,30,28,30,28,26,95,94,91,30.04,29.77,9,2,10,0.00
2012-11-29,54,45,28,41,36,27,97,74,53,29.83,29.60,14,5,17,0.18
2012-11-30,55,47,40,42,39,36,92,73,55,29.63,29.54,14,6,15,0.10
2012-12-1,49,44,39,40,37,32,94,78,58,29.81,29.46,18,3,20,0.52
2012-12-2,41,40,37,34,33,31,79,76,75,29.95,29.91,5,2,6,0.00
2012-12-3,50,43,38,36,33,31,80,68,57,30.09,29.85,17,4,19,0.04
2012-12-4,48,47,46,44,44,43,91,87,82,29.91,29.86,8,4,8,0.10
2012-12-5,48,42,31,43,33,27,86,71,56,30.19,29.91,18,5,18,0.00
2012-12-6,43,35,28,30,28,25,91,75,56,30.19,30.13,13,4,15,0.00
2012-12-7,46,39,32,33,30,26,81,69,57,30.15,30.04,18,5,19,0.00
2012-12-8,41,35,31,30,28,26,86,75,58,30.27,30.10,10,2,11,0.00
2012-12-9,46,38,29,38,32,27,92,80,63,30.37,30.26,9,2,9,0.00
2012-12-10,55,43,37,39,34,28,86,71,41,30.34,30.11,8,2,8,0.00
2012-12-11,47,39,32,33,29,23,82,69,38,30.11,29.63,15,3,18,0.00
2012-12-12,42,36,29,31,27,25,89,71,53,29.97,29.67,10,3,12,0.00
2012-12-13,47,30,22,30,24,19,91,79,47,30.01,29.81,5,1,6,0.00
2012-12-14,40,30,23,33,25,19,88,80,58,29.95,29.78,6,2,7,0.03
2012-12-15,33,28,19,31,23,15,93,84,66,29.95,29.64,10,3,12,0.00
2012-12-16,42,35,28,37,31,24,93,83,76,29.82,29.31,20,4,20,0.99
2012-12-17,40,31,23,37,28,19,94,87,77,29.95,29.35,21,7,21,0.46
2012-12-18,36,26,18,24,20,15,90,78,58,30.03,29.93,10,3,11,0.00
2012-12-19,38,32,23,26,22,18,81,66,56,30.03,29.79,23,9,24,0.02
2012-12-20,40,36,32,31,26,21,93,69,52,29.84,29.69,22,7,27,0.02
2012-12-21,41,35,31,35,31,29,94,87,71,29.83,29.70,10,2,10,0.09
2012-12-22,46,37,32,34,29,24,92,74,45,29.75,29.55,12,3,13,0.00
2012-12-23,32,30,28,28,27,25,90,87,84,29.87,29.76,15,4,15,0.00
2012-12-24,41,30,25,31,25,22,89,81,65,30.13,29.87,10,3,15,0.03
2012-12-25,37,33,29,31,27,22,91,78,67,30.05,29.71,11,6,16,0.19
2012-12-26,38,31,27,33,29,26,93,90,79,29.97,29.72,4,1,4,0.04
2012-12-27,48,28,21,30,23,18,93,82,47,30.15,29.97,5,1,6,0.00
2012-12-28,33,24,18,23,19,14,88,80,62,30.16,30.08,6,2,9,0.00
2012-12-29,38,24,20,25,20,17,93,85,57,30.17,30.05,5,1,5,0.00
2012-12-30,31,26,18,25,22,14,90,85,74,30.27,30.13,8,2,8,0.00
2012-12-31,30,20,13,20,15,10,89,80,65,30.39,30.19,10,3,10,0.00
2013-1-1,29,18,13,20,15,10,93,86,66,30.51,30.39,8,2,9,0.00